sensor_id;sensor_type;location;lat;lon;timestamp;temperature;humidity
18777;DHT22;9517;51.174;4.160;2024-01-11T05:26:38;-4.50;99.90
18777;DHT22;9517;51.174;4.160;2024-01-11T05:29:06;-4.70;99.90
18777;DHT22;9517;51.174;4.160;2024-01-11T05:31:33;-4.70;99.90
18777;DHT22;9517;51.174;4.160;2024-01-11T05:34:00;-4.80;99.90
18777;DHT22;9517;51.174;4.160;2024-01-11T05:36:27;-4.70;99.90
18777;DHT22;9517;51.174;4.160;2024-01-11T05:38:54;-4.70;99.90
18777;DHT22;9517;51.174;4.160;2024-01-11T05:41:24;-4.50;99.90
18777;DHT22;9517;51.174;4.160;2024-01-11T05:43:53;-4.50;99.90
18777;DHT22;9517;51.174;4.160;2024-01-11T05:46:20;-4.50;99.90
18777;DHT22;9517;51.174;4.160;2024-01-11T05:48:47;-4.40;99.90
18777;DHT22;9517;51.174;4.160;2024-01-11T05:51:14;-4.40;99.90
18777;DHT22;9517;51.174;4.160;2024-01-11T05:53:41;-4.50;99.90
18777;DHT22;9517;51.174;4.160;2024-01-11T05:56:09;-4.50;99.90
18777;DHT22;9517;51.174;4.160;2024-01-11T05:58:36;-4.50;99.90
18777;DHT22;9517;51.174;4.160;2024-01-11T06:01:05;-4.50;99.90
18777;DHT22;9517;51.174;4.160;2024-01-11T06:03:33;-4.40;99.90
18777;DHT22;9517;51.174;4.160;2024-01-11T06:06:00;-4.40;99.90
18777;DHT22;9517;51.174;4.160;2024-01-11T06:08:29;-4.50;99.90
18777;DHT22;9517;51.174;4.160;2024-01-11T06:10:57;-4.50;99.90
18777;DHT22;9517;51.174;4.160;2024-01-11T06:13:24;-4.40;99.90
18777;DHT22;9517;51.174;4.160;2024-01-11T06:15:52;-4.30;99.90
18777;DHT22;9517;51.174;4.160;2024-01-11T06:18:20;-4.40;99.90
18777;DHT22;9517;51.174;4.160;2024-01-11T06:20:47;-4.60;99.90
18777;DHT22;9517;51.174;4.160;2024-01-11T06:23:14;-4.60;99.90
18777;DHT22;9517;51.174;4.160;2024-01-11T06:25:42;-4.60;99.90
18777;DHT22;9517;51.174;4.160;2024-01-11T06:28:09;-5.00;99.90
18777;DHT22;9517;51.174;4.160;2024-01-11T06:30:36;-5.00;99.90
18777;DHT22;9517;51.174;4.160;2024-01-11T06:33:04;-5.00;99.90
18777;DHT22;9517;51.174;4.160;2024-01-11T06:35:32;-4.90;99.90
18777;DHT22;9517;51.174;4.160;2024-01-11T06:37:59;-5.00;99.90
18777;DHT22;9517;51.174;4.160;2024-01-11T06:40:27;-4.80;99.90
18777;DHT22;9517;51.174;4.160;2024-01-11T06:42:59;-4.70;99.90
18777;DHT22;9517;51.174;4.160;2024-01-11T06:45:27;-4.60;99.90
18777;DHT22;9517;51.174;4.160;2024-01-11T06:47:54;-4.60;99.90
18777;DHT22;9517;51.174;4.160;2024-01-11T06:50:21;-4.60;99.90
18777;DHT22;9517;51.174;4.160;2024-01-11T06:52:49;-4.50;99.90
18777;DHT22;9517;51.174;4.160;2024-01-11T06:55:16;-4.60;99.90
18777;DHT22;9517;51.174;4.160;2024-01-11T06:57:46;-4.60;99.90
18777;DHT22;9517;51.174;4.160;2024-01-11T07:00:14;-4.50;99.90
18777;DHT22;9517;51.174;4.160;2024-01-11T07:02:41;-4.50;99.90
18777;DHT22;9517;51.174;4.160;2024-01-11T07:05:28;-4.40;99.90
18777;DHT22;9517;51.174;4.160;2024-01-11T07:07:57;-4.50;99.90
18777;DHT22;9517;51.174;4.160;2024-01-11T07:10:24;-4.60;99.90
18777;DHT22;9517;51.174;4.160;2024-01-11T07:12:51;-4.50;99.90
18777;DHT22;9517;51.174;4.160;2024-01-11T07:15:18;-4.40;99.90
18777;DHT22;9517;51.174;4.160;2024-01-11T07:17:45;-4.50;99.90
18777;DHT22;9517;51.174;4.160;2024-01-11T07:20:13;-4.50;99.90
18777;DHT22;9517;51.174;4.160;2024-01-11T07:22:42;-4.60;99.90
18777;DHT22;9517;51.174;4.160;2024-01-11T07:25:11;-4.50;99.90
18777;DHT22;9517;51.174;4.160;2024-01-11T07:27:39;-4.60;99.90
18777;DHT22;9517;51.174;4.160;2024-01-11T07:30:07;-4.60;99.90
18777;DHT22;9517;51.174;4.160;2024-01-11T07:32:35;-4.50;99.90
18777;DHT22;9517;51.174;4.160;2024-01-11T07:35:02;-4.50;99.90
18777;DHT22;9517;51.174;4.160;2024-01-11T07:37:29;-4.50;99.90
18777;DHT22;9517;51.174;4.160;2024-01-11T07:39:56;-4.50;99.90
18777;DHT22;9517;51.174;4.160;2024-01-11T07:42:24;-4.50;99.90
18777;DHT22;9517;51.174;4.160;2024-01-11T07:44:51;-4.50;99.90
18777;DHT22;9517;51.174;4.160;2024-01-11T07:47:19;-4.60;99.90
18777;DHT22;9517;51.174;4.160;2024-01-11T07:49:46;-4.60;99.90
18777;DHT22;9517;51.174;4.160;2024-01-11T07:52:13;-4.60;99.90
18777;DHT22;9517;51.174;4.160;2024-01-11T07:54:40;-4.50;99.90
18777;DHT22;9517;51.174;4.160;2024-01-11T07:57:07;-4.40;99.90
18777;DHT22;9517;51.174;4.160;2024-01-11T07:59:36;-4.40;99.90
18777;DHT22;9517;51.174;4.160;2024-01-11T08:02:03;-4.60;99.90
18777;DHT22;9517;51.174;4.160;2024-01-11T08:04:31;-4.50;99.90
18777;DHT22;9517;51.174;4.160;2024-01-11T08:06:58;-4.60;99.90
18777;DHT22;9517;51.174;4.160;2024-01-11T08:09:26;-4.50;99.90
18777;DHT22;9517;51.174;4.160;2024-01-11T08:11:53;-4.50;99.90
18777;DHT22;9517;51.174;4.160;2024-01-11T08:14:20;-4.50;99.90
18777;DHT22;9517;51.174;4.160;2024-01-11T08:16:49;-4.50;99.90
18777;DHT22;9517;51.174;4.160;2024-01-11T08:19:16;-4.40;99.90
18777;DHT22;9517;51.174;4.160;2024-01-11T08:21:43;-4.40;99.90
18777;DHT22;9517;51.174;4.160;2024-01-11T08:24:10;-4.10;99.90
18777;DHT22;9517;51.174;4.160;2024-01-11T08:26:37;-4.20;99.90
18777;DHT22;9517;51.174;4.160;2024-01-11T08:29:04;-4.20;99.90
18777;DHT22;9517;51.174;4.160;2024-01-11T08:31:31;-4.10;99.90
18777;DHT22;9517;51.174;4.160;2024-01-11T08:34:01;-4.00;99.90
18777;DHT22;9517;51.174;4.160;2024-01-11T08:36:31;-3.90;99.90
18777;DHT22;9517;51.174;4.160;2024-01-11T08:38:59;-3.90;99.90
18777;DHT22;9517;51.174;4.160;2024-01-11T08:41:26;-3.70;99.90
18777;DHT22;9517;51.174;4.160;2024-01-11T08:43:53;-3.70;99.90
18777;DHT22;9517;51.174;4.160;2024-01-11T08:46:24;-3.60;99.90
18777;DHT22;9517;51.174;4.160;2024-01-11T08:48:52;-3.70;99.90
18777;DHT22;9517;51.174;4.160;2024-01-11T08:51:21;-3.60;99.90
18777;DHT22;9517;51.174;4.160;2024-01-11T08:53:48;-3.50;99.90
18777;DHT22;9517;51.174;4.160;2024-01-11T08:56:15;-3.30;99.90
18777;DHT22;9517;51.174;4.160;2024-01-11T08:58:42;-3.10;99.90
18777;DHT22;9517;51.174;4.160;2024-01-11T09:01:09;-3.10;99.90
18777;DHT22;9517;51.174;4.160;2024-01-11T09:03:36;-3.00;99.90
18777;DHT22;9517;51.174;4.160;2024-01-11T09:06:04;-2.90;99.90
18777;DHT22;9517;51.174;4.160;2024-01-11T09:08:33;-2.80;99.90
18777;DHT22;9517;51.174;4.160;2024-01-11T09:11:00;-2.80;99.90
18777;DHT22;9517;51.174;4.160;2024-01-11T09:13:28;-2.80;99.90
18777;DHT22;9517;51.174;4.160;2024-01-11T09:15:55;-2.60;99.90
18777;DHT22;9517;51.174;4.160;2024-01-11T09:18:23;-2.50;99.90
18777;DHT22;9517;51.174;4.160;2024-01-11T09:20:50;-2.40;99.90
18777;DHT22;9517;51.174;4.160;2024-01-11T09:23:17;-2.40;99.90
18777;DHT22;9517;51.174;4.160;2024-01-11T09:25:46;-2.30;99.90
18777;DHT22;9517;51.174;4.160;2024-01-11T09:28:13;-2.10;99.90
18777;DHT22;9517;51.174;4.160;2024-01-11T09:30:40;-2.00;99.90
18777;DHT22;9517;51.174;4.160;2024-01-11T09:33:07;-2.00;99.90
18777;DHT22;9517;51.174;4.160;2024-01-11T09:35:34;-2.00;99.90
18777;DHT22;9517;51.174;4.160;2024-01-11T09:38:01;-2.00;99.90
18777;DHT22;9517;51.174;4.160;2024-01-11T09:40:29;-1.80;99.90
18777;DHT22;9517;51.174;4.160;2024-01-11T09:42:58;-1.70;99.90
18777;DHT22;9517;51.174;4.160;2024-01-11T09:45:26;-1.80;99.90
18777;DHT22;9517;51.174;4.160;2024-01-11T09:47:53;-1.60;99.90
18777;DHT22;9517;51.174;4.160;2024-01-11T09:50:21;-1.60;99.90
18777;DHT22;9517;51.174;4.160;2024-01-11T09:52:50;-1.50;99.90
18777;DHT22;9517;51.174;4.160;2024-01-11T09:55:17;-1.40;99.90
18777;DHT22;9517;51.174;4.160;2024-01-11T09:57:45;-1.40;99.90
18777;DHT22;9517;51.174;4.160;2024-01-11T10:00:17;-1.30;99.90
18777;DHT22;9517;51.174;4.160;2024-01-11T10:02:46;-1.20;99.90
18777;DHT22;9517;51.174;4.160;2024-01-11T10:05:13;-1.20;99.90
18777;DHT22;9517;51.174;4.160;2024-01-11T10:07:40;-1.00;99.90
18777;DHT22;9517;51.174;4.160;2024-01-11T10:10:08;-1.00;99.90
18777;DHT22;9517;51.174;4.160;2024-01-11T10:12:36;-1.00;99.90
18777;DHT22;9517;51.174;4.160;2024-01-11T10:15:07;-0.80;99.90
18777;DHT22;9517;51.174;4.160;2024-01-11T10:17:41;-0.60;99.90
18777;DHT22;9517;51.174;4.160;2024-01-11T10:20:08;-0.40;99.90
18777;DHT22;9517;51.174;4.160;2024-01-11T10:22:37;-0.30;99.90
18777;DHT22;9517;51.174;4.160;2024-01-11T10:25:14;0.10;99.90
18777;DHT22;9517;51.174;4.160;2024-01-11T10:27:42;0.30;99.90
18777;DHT22;9517;51.174;4.160;2024-01-11T10:30:11;0.30;99.90
18777;DHT22;9517;51.174;4.160;2024-01-11T10:32:43;0.60;99.90
18777;DHT22;9517;51.174;4.160;2024-01-11T10:35:10;0.30;99.90
18777;DHT22;9517;51.174;4.160;2024-01-11T10:37:38;0.90;99.90
18777;DHT22;9517;51.174;4.160;2024-01-11T10:40:07;0.70;99.90
18777;DHT22;9517;51.174;4.160;2024-01-11T10:42:41;1.00;99.90
18777;DHT22;9517;51.174;4.160;2024-01-11T10:45:13;1.00;99.90
18777;DHT22;9517;51.174;4.160;2024-01-11T10:47:50;1.30;99.90
18777;DHT22;9517;51.174;4.160;2024-01-11T10:50:19;1.50;99.90
18777;DHT22;9517;51.174;4.160;2024-01-11T10:53:01;1.70;99.90
18777;DHT22;9517;51.174;4.160;2024-01-11T10:55:32;1.70;99.90
18777;DHT22;9517;51.174;4.160;2024-01-11T10:58:03;2.40;99.90
18777;DHT22;9517;51.174;4.160;2024-01-11T11:00:31;3.00;99.90
18777;DHT22;9517;51.174;4.160;2024-01-11T11:03:05;3.60;99.90
18777;DHT22;9517;51.174;4.160;2024-01-11T11:05:35;3.80;99.90
18777;DHT22;9517;51.174;4.160;2024-01-11T11:08:04;4.30;99.90
18777;DHT22;9517;51.174;4.160;2024-01-11T11:10:37;4.30;99.90
18777;DHT22;9517;51.174;4.160;2024-01-11T11:13:10;5.10;99.90
18777;DHT22;9517;51.174;4.160;2024-01-11T11:15:48;5.90;99.90
18777;DHT22;9517;51.174;4.160;2024-01-11T11:18:23;6.50;99.90
18777;DHT22;9517;51.174;4.160;2024-01-11T11:20:52;7.30;99.90
18777;DHT22;9517;51.174;4.160;2024-01-11T11:23:28;7.30;99.90
18777;DHT22;9517;51.174;4.160;2024-01-11T11:26:05;7.10;99.90
18777;DHT22;9517;51.174;4.160;2024-01-11T11:28:46;7.40;99.90
18777;DHT22;9517;51.174;4.160;2024-01-11T11:31:34;7.10;99.90
18777;DHT22;9517;51.174;4.160;2024-01-11T11:34:14;7.50;99.90
18777;DHT22;9517;51.174;4.160;2024-01-11T11:36:46;8.50;99.90
18777;DHT22;9517;51.174;4.160;2024-01-11T11:39:18;9.20;99.90
18777;DHT22;9517;51.174;4.160;2024-01-11T11:41:47;8.80;99.90
18777;DHT22;9517;51.174;4.160;2024-01-11T11:44:16;8.20;99.90
18777;DHT22;9517;51.174;4.160;2024-01-11T11:46:45;8.60;99.90
18777;DHT22;9517;51.174;4.160;2024-01-11T11:49:18;8.60;99.90
18777;DHT22;9517;51.174;4.160;2024-01-11T11:52:01;8.20;99.90
18777;DHT22;9517;51.174;4.160;2024-01-11T11:54:32;8.50;99.90
18777;DHT22;9517;51.174;4.160;2024-01-11T11:56:59;7.40;99.90
18777;DHT22;9517;51.174;4.160;2024-01-11T11:59:27;8.00;99.90
18777;DHT22;9517;51.174;4.160;2024-01-11T12:01:59;8.60;99.90
18777;DHT22;9517;51.174;4.160;2024-01-11T12:04:34;8.40;99.90
18777;DHT22;9517;51.174;4.160;2024-01-11T12:07:02;8.40;99.90
18777;DHT22;9517;51.174;4.160;2024-01-11T12:09:35;7.80;99.90
18777;DHT22;9517;51.174;4.160;2024-01-11T12:12:07;7.80;99.90
18777;DHT22;9517;51.174;4.160;2024-01-11T12:14:38;8.00;99.90
18777;DHT22;9517;51.174;4.160;2024-01-11T12:17:06;8.30;99.90
18777;DHT22;9517;51.174;4.160;2024-01-11T12:19:44;7.80;99.90
18777;DHT22;9517;51.174;4.160;2024-01-11T12:22:17;7.60;99.90
18777;DHT22;9517;51.174;4.160;2024-01-11T12:25:04;8.20;99.90
18777;DHT22;9517;51.174;4.160;2024-01-11T12:27:56;8.40;99.90
18777;DHT22;9517;51.174;4.160;2024-01-11T12:30:51;9.00;99.90
18777;DHT22;9517;51.174;4.160;2024-01-11T12:55:18;8.90;99.90
18777;DHT22;9517;51.174;4.160;2024-01-11T12:58:09;8.60;99.90
18777;DHT22;9517;51.174;4.160;2024-01-11T13:00:55;8.70;99.90
18777;DHT22;9517;51.174;4.160;2024-01-11T13:03:30;8.70;99.90
18777;DHT22;9517;51.174;4.160;2024-01-11T13:06:18;8.80;99.90
18777;DHT22;9517;51.174;4.160;2024-01-11T13:09:23;8.40;99.90
18777;DHT22;9517;51.174;4.160;2024-01-11T13:12:15;8.90;99.90
18777;DHT22;9517;51.174;4.160;2024-01-11T15:19:59;3.00;99.90
18777;DHT22;9517;51.174;4.160;2024-01-11T15:22:28;3.10;99.90
18777;DHT22;9517;51.174;4.160;2024-01-11T15:24:58;3.20;99.90
18777;DHT22;9517;51.174;4.160;2024-01-11T15:27:26;3.10;99.90
18777;DHT22;9517;51.174;4.160;2024-01-11T15:29:53;3.00;99.90
18777;DHT22;9517;51.174;4.160;2024-01-11T15:32:21;3.00;99.90
18777;DHT22;9517;51.174;4.160;2024-01-11T15:34:49;3.10;99.90
18777;DHT22;9517;51.174;4.160;2024-01-11T15:37:20;3.20;99.90
18777;DHT22;9517;51.174;4.160;2024-01-11T15:39:49;3.10;99.90
18777;DHT22;9517;51.174;4.160;2024-01-11T15:42:16;3.00;99.90
18777;DHT22;9517;51.174;4.160;2024-01-11T15:44:44;2.80;99.90
18777;DHT22;9517;51.174;4.160;2024-01-11T15:47:12;2.80;99.90
18777;DHT22;9517;51.174;4.160;2024-01-11T15:49:40;2.90;99.90
18777;DHT22;9517;51.174;4.160;2024-01-11T15:52:08;2.90;99.90
18777;DHT22;9517;51.174;4.160;2024-01-11T15:55:11;2.70;99.90
18777;DHT22;9517;51.174;4.160;2024-01-11T15:57:42;2.80;99.90
18777;DHT22;9517;51.174;4.160;2024-01-11T16:00:14;2.70;99.90
18777;DHT22;9517;51.174;4.160;2024-01-11T16:02:54;2.90;99.90
18777;DHT22;9517;51.174;4.160;2024-01-11T16:05:36;3.10;99.90
18777;DHT22;9517;51.174;4.160;2024-01-11T16:08:05;2.90;99.90
18777;DHT22;9517;51.174;4.160;2024-01-11T16:10:58;2.80;99.90
18777;DHT22;9517;51.174;4.160;2024-01-11T16:13:41;2.80;99.90
18777;DHT22;9517;51.174;4.160;2024-01-11T16:16:32;2.60;99.90
18777;DHT22;9517;51.174;4.160;2024-01-11T16:28:26;2.80;99.90
18777;DHT22;9517;51.174;4.160;2024-01-11T16:31:06;2.90;99.90
18777;DHT22;9517;51.174;4.160;2024-01-11T20:32:46;2.10;99.90
18777;DHT22;9517;51.174;4.160;2024-01-11T20:35:16;2.10;99.90
18777;DHT22;9517;51.174;4.160;2024-01-11T20:37:46;2.20;99.90
18777;DHT22;9517;51.174;4.160;2024-01-11T20:40:13;2.10;99.90
18777;DHT22;9517;51.174;4.160;2024-01-11T20:43:01;2.00;99.90
18777;DHT22;9517;51.174;4.160;2024-01-11T20:45:30;2.00;99.90
18777;DHT22;9517;51.174;4.160;2024-01-11T20:47:58;2.00;99.90
18777;DHT22;9517;51.174;4.160;2024-01-11T20:50:26;2.10;99.90
18777;DHT22;9517;51.174;4.160;2024-01-11T20:52:53;2.20;99.90
18777;DHT22;9517;51.174;4.160;2024-01-11T20:55:20;2.20;99.90
18777;DHT22;9517;51.174;4.160;2024-01-11T20:57:48;2.30;99.90
18777;DHT22;9517;51.174;4.160;2024-01-11T21:00:16;2.10;99.90
18777;DHT22;9517;51.174;4.160;2024-01-11T21:02:47;2.20;99.90
18777;DHT22;9517;51.174;4.160;2024-01-11T21:05:20;2.20;99.90
18777;DHT22;9517;51.174;4.160;2024-01-11T21:07:47;2.20;99.90
18777;DHT22;9517;51.174;4.160;2024-01-11T21:10:14;2.30;99.90
18777;DHT22;9517;51.174;4.160;2024-01-11T21:13:12;2.20;99.90
18777;DHT22;9517;51.174;4.160;2024-01-11T21:15:40;2.20;99.90
18777;DHT22;9517;51.174;4.160;2024-01-11T21:18:07;2.20;99.90
18777;DHT22;9517;51.174;4.160;2024-01-11T21:20:36;2.20;99.90
18777;DHT22;9517;51.174;4.160;2024-01-11T21:23:21;2.20;99.90
18777;DHT22;9517;51.174;4.160;2024-01-11T21:26:38;2.30;99.90
18777;DHT22;9517;51.174;4.160;2024-01-11T21:29:08;2.30;99.90
18777;DHT22;9517;51.174;4.160;2024-01-11T21:32:22;2.40;99.90
18777;DHT22;9517;51.174;4.160;2024-01-11T21:34:48;2.50;99.90
18777;DHT22;9517;51.174;4.160;2024-01-11T21:37:17;2.50;99.90
18777;DHT22;9517;51.174;4.160;2024-01-11T21:39:45;2.40;99.90
18777;DHT22;9517;51.174;4.160;2024-01-11T21:42:13;2.40;99.90
18777;DHT22;9517;51.174;4.160;2024-01-11T21:44:45;2.40;99.90
18777;DHT22;9517;51.174;4.160;2024-01-11T21:47:16;2.40;99.90
18777;DHT22;9517;51.174;4.160;2024-01-11T21:49:44;2.50;99.90
18777;DHT22;9517;51.174;4.160;2024-01-11T21:52:14;2.60;99.90
18777;DHT22;9517;51.174;4.160;2024-01-11T21:54:46;2.60;99.90
18777;DHT22;9517;51.174;4.160;2024-01-11T21:57:18;2.70;99.90
18777;DHT22;9517;51.174;4.160;2024-01-11T21:59:49;2.70;99.90
18777;DHT22;9517;51.174;4.160;2024-01-11T22:02:19;2.60;99.90
18777;DHT22;9517;51.174;4.160;2024-01-11T22:04:47;2.60;99.90
18777;DHT22;9517;51.174;4.160;2024-01-11T22:07:21;2.50;99.90
18777;DHT22;9517;51.174;4.160;2024-01-11T22:09:56;2.40;99.90
18777;DHT22;9517;51.174;4.160;2024-01-11T22:12:29;2.40;99.90
18777;DHT22;9517;51.174;4.160;2024-01-11T22:14:58;2.50;99.90
18777;DHT22;9517;51.174;4.160;2024-01-11T22:17:26;2.50;99.90
18777;DHT22;9517;51.174;4.160;2024-01-11T22:19:54;2.40;99.90
18777;DHT22;9517;51.174;4.160;2024-01-11T22:22:22;2.40;99.90
18777;DHT22;9517;51.174;4.160;2024-01-11T22:24:49;2.40;99.90
18777;DHT22;9517;51.174;4.160;2024-01-11T22:27:24;2.50;99.90
18777;DHT22;9517;51.174;4.160;2024-01-11T22:29:53;2.50;99.90
18777;DHT22;9517;51.174;4.160;2024-01-11T22:32:25;2.50;99.90
18777;DHT22;9517;51.174;4.160;2024-01-11T22:34:56;2.50;99.90
18777;DHT22;9517;51.174;4.160;2024-01-11T22:37:25;2.30;99.90
18777;DHT22;9517;51.174;4.160;2024-01-11T22:39:53;2.20;99.90
18777;DHT22;9517;51.174;4.160;2024-01-11T22:42:20;2.30;99.90
18777;DHT22;9517;51.174;4.160;2024-01-11T22:44:59;2.20;99.90
18777;DHT22;9517;51.174;4.160;2024-01-11T22:47:29;2.20;99.90
18777;DHT22;9517;51.174;4.160;2024-01-11T22:49:59;2.40;99.90
18777;DHT22;9517;51.174;4.160;2024-01-11T22:52:28;2.50;99.90
18777;DHT22;9517;51.174;4.160;2024-01-11T22:54:55;2.50;99.90
18777;DHT22;9517;51.174;4.160;2024-01-11T22:57:22;2.50;99.90
18777;DHT22;9517;51.174;4.160;2024-01-11T22:59:53;2.60;99.90
18777;DHT22;9517;51.174;4.160;2024-01-11T23:02:23;2.60;99.90
18777;DHT22;9517;51.174;4.160;2024-01-11T23:04:52;2.70;99.90
18777;DHT22;9517;51.174;4.160;2024-01-11T23:07:20;2.60;99.90
18777;DHT22;9517;51.174;4.160;2024-01-11T23:09:50;2.60;99.90
18777;DHT22;9517;51.174;4.160;2024-01-11T23:12:18;2.70;99.90
18777;DHT22;9517;51.174;4.160;2024-01-11T23:14:49;2.70;99.90
18777;DHT22;9517;51.174;4.160;2024-01-11T23:17:17;2.60;99.90
18777;DHT22;9517;51.174;4.160;2024-01-11T23:19:45;2.70;99.90
18777;DHT22;9517;51.174;4.160;2024-01-11T23:22:17;2.80;99.90
18777;DHT22;9517;51.174;4.160;2024-01-11T23:24:47;2.80;99.90
18777;DHT22;9517;51.174;4.160;2024-01-11T23:27:14;2.70;99.90
18777;DHT22;9517;51.174;4.160;2024-01-11T23:29:43;2.80;99.90
18777;DHT22;9517;51.174;4.160;2024-01-11T23:32:17;2.80;99.90
18777;DHT22;9517;51.174;4.160;2024-01-11T23:34:44;2.80;99.90
18777;DHT22;9517;51.174;4.160;2024-01-11T23:37:15;2.90;99.90
18777;DHT22;9517;51.174;4.160;2024-01-11T23:39:42;2.90;99.90
18777;DHT22;9517;51.174;4.160;2024-01-11T23:42:11;3.00;99.90
18777;DHT22;9517;51.174;4.160;2024-01-11T23:44:41;3.00;99.90
18777;DHT22;9517;51.174;4.160;2024-01-11T23:47:11;3.00;99.90
18777;DHT22;9517;51.174;4.160;2024-01-11T23:49:40;3.10;99.90
18777;DHT22;9517;51.174;4.160;2024-01-11T23:52:08;3.00;99.90
18777;DHT22;9517;51.174;4.160;2024-01-11T23:54:37;3.00;99.90
18777;DHT22;9517;51.174;4.160;2024-01-11T23:57:15;3.00;99.90
18777;DHT22;9517;51.174;4.160;2024-01-11T23:59:47;3.10;99.90
